createdAt,value
2019-02-15T00:00:06.150Z,97620.57
2019-02-15T00:00:14.014Z,97616.96
2019-02-15T00:00:21.956Z,97619.515
2019-02-15T00:00:29.835Z,97617.296
2019-02-15T00:00:37.717Z,97618.617
2019-02-15T00:00:45.633Z,97620.078
2019-02-15T00:00:53.546Z,97619.914
2019-02-15T00:01:01.431Z,97622.093
2019-02-15T00:01:09.376Z,97620.937
2019-02-15T00:01:17.283Z,97620.906
2019-02-15T00:01:26.158Z,97622.265
2019-02-15T00:01:34.027Z,97621.109
2019-02-15T00:01:42.931Z,97621.437
2019-02-15T00:01:50.902Z,97621.437
2019-02-15T00:01:59.741Z,97618.593
2019-02-15T00:02:07.616Z,97620.273
2019-02-15T00:02:15.507Z,97621.765
2019-02-15T00:02:23.406Z,97619.781
2019-02-15T00:02:31.312Z,97620.343
2019-02-15T00:02:39.206Z,97620.906
2019-02-15T00:02:47.106Z,97619.945
2019-02-15T00:02:54.996Z,97619.015
2019-02-15T00:03:02.869Z,97621.343
2019-02-15T00:03:10.773Z,97623.234
2019-02-15T00:03:18.641Z,97621.929
2019-02-15T00:03:27.539Z,97620.773
2019-02-15T00:03:35.403Z,97618.75
2019-02-15T00:03:43.279Z,97617.929
2019-02-15T00:03:51.176Z,97618.953
2019-02-15T00:03:59.052Z,97618.781
2019-02-15T00:04:06.930Z,97617.765
2019-02-15T00:04:14.853Z,97619.781
2019-02-15T00:04:23.766Z,97621.109
2019-02-15T00:04:31.640Z,97620.015
2019-02-15T00:04:39.545Z,97619.187
2019-02-15T00:04:47.420Z,97622.429
2019-02-15T00:04:55.308Z,97620.812
2019-02-15T00:05:03.237Z,97620.179
2019-02-15T00:05:11.122Z,97617.265
2019-02-15T00:05:19.036Z,97620.507
2019-02-15T00:05:26.924Z,97618.156
2019-02-15T00:05:34.791Z,97618.593
2019-02-15T00:05:42.671Z,97618.515
2019-02-15T00:05:50.542Z,97618.359
2019-02-15T00:05:58.444Z,97618.421
2019-02-15T00:06:06.336Z,97621.406
2019-02-15T00:06:14.246Z,97618.093
2019-02-15T00:06:22.132Z,97618.023
2019-02-15T00:06:29.995Z,97618.187
2019-02-15T00:06:37.890Z,97616.101
2019-02-15T00:06:45.784Z,97617.093
2019-02-15T00:06:53.672Z,97619.843
2019-02-15T00:07:03.531Z,97619.351
2019-02-15T00:07:11.415Z,97617.765
2019-02-15T00:07:19.283Z,97617.859
2019-02-15T00:07:27.159Z,97617.093
2019-02-15T00:07:35.037Z,97615.765
2019-02-15T00:07:42.946Z,97616.601
2019-02-15T00:07:50.833Z,97616.601
2019-02-15T00:07:58.754Z,97619.351
2019-02-15T00:08:06.647Z,97616.671
2019-02-15T00:08:14.566Z,97615.25
2019-02-15T00:08:22.468Z,97613.781
2019-02-15T00:08:31.336Z,97613.125
2019-02-15T00:08:39.202Z,97615.109
2019-02-15T00:08:47.085Z,97615.671
2019-02-15T00:08:54.992Z,97613.781
2019-02-15T00:09:02.875Z,97615.937
2019-02-15T00:09:10.754Z,97614.945
2019-02-15T00:09:19.617Z,97613.875
2019-02-15T00:09:27.521Z,97616.101
2019-02-15T00:09:35.418Z,97615.609
2019-02-15T00:09:43.287Z,97616.734
2019-02-15T00:09:51.155Z,97611.937
2019-02-15T00:09:59.045Z,97618.515
2019-02-15T00:10:06.959Z,97614.515
2019-02-15T00:10:14.884Z,97610.609
2019-02-15T00:10:22.737Z,97616.531
2019-02-15T00:10:30.619Z,97617.031
2019-02-15T00:10:38.504Z,97613.687
2019-02-15T00:10:46.389Z,97614.421
2019-02-15T00:10:55.263Z,97613.617
2019-02-15T00:11:03.171Z,97613.617
2019-02-15T00:11:11.064Z,97612.171
2019-02-15T00:11:18.974Z,97611.531
2019-02-15T00:11:26.881Z,97615.867
2019-02-15T00:11:34.765Z,97611.796
2019-02-15T00:11:42.634Z,97613.156
2019-02-15T00:11:50.530Z,97613.851
2019-02-15T00:11:58.382Z,97613.851
2019-02-15T00:12:06.305Z,97613.851
2019-02-15T00:12:14.189Z,97616.671
2019-02-15T00:12:22.067Z,97614.75
2019-02-15T00:12:30.985Z,97614.187
2019-02-15T00:12:38.807Z,97616.406
2019-02-15T00:12:46.707Z,97614.421
2019-02-15T00:12:54.569Z,97614.679
2019-02-15T00:13:02.437Z,97613.265
2019-02-15T00:13:14.281Z,97612.195
2019-02-15T00:13:22.222Z,97611.5
2019-02-15T00:13:30.157Z,97616.171
2019-02-15T00:13:38.036Z,97613.687
2019-02-15T00:13:45.909Z,97615.437
2019-02-15T00:13:53.763Z,97613.75
2019-02-15T00:14:01.655Z,97610.437
2019-02-15T00:14:09.551Z,97614.187
2019-02-15T00:14:17.461Z,97613.781
2019-02-15T00:14:25.357Z,97613.828
2019-02-15T00:14:33.212Z,97614.085
2019-02-15T00:14:41.111Z,97613.265
2019-02-15T00:14:49.032Z,97614.39
2019-02-15T00:14:56.895Z,97615.906
2019-02-15T00:15:04.757Z,97614.554
2019-02-15T00:15:12.651Z,97613.687
2019-02-15T00:15:20.535Z,97616.734
2019-02-15T00:15:28.418Z,97612.664
2019-02-15T00:15:36.318Z,97615.414
2019-02-15T00:15:44.259Z,97615.976
2019-02-15T00:15:52.153Z,97614.421
2019-02-15T00:16:00.054Z,97614.578
2019-02-15T00:16:08.913Z,97617.328
2019-02-15T00:16:16.820Z,97616.546
2019-02-15T00:16:24.713Z,97616.968
2019-02-15T00:16:32.609Z,97618.562
2019-02-15T00:16:40.471Z,97617.234
2019-02-15T00:16:48.437Z,97618.96
2019-02-15T00:16:56.338Z,97617.203
2019-02-15T00:17:04.997Z,97614.218
2019-02-15T00:17:12.885Z,97615.718
2019-02-15T00:17:20.791Z,97616.234
2019-02-15T00:17:28.664Z,97615.156
2019-02-15T00:17:36.538Z,97615.718
2019-02-15T00:17:44.413Z,97616.906
2019-02-15T00:17:52.309Z,97618.468
2019-02-15T00:18:00.219Z,97614.984
2019-02-15T00:18:08.113Z,97616.906
2019-02-15T00:18:16.001Z,97614.085
2019-02-15T00:18:23.877Z,97615.046
2019-02-15T00:18:32.747Z,97617.234
2019-02-15T00:18:41.627Z,97619.554
2019-02-15T00:18:49.553Z,97616.875
2019-02-15T00:18:58.425Z,97616.046
2019-02-15T00:19:06.379Z,97617.562
2019-02-15T00:19:14.366Z,97618.031
2019-02-15T00:19:22.194Z,97620.718
2019-02-15T00:19:30.099Z,97620.718
2019-02-15T00:19:37.991Z,97619.429
2019-02-15T00:19:46.845Z,97619.554
2019-02-15T00:19:54.738Z,97618.125
2019-02-15T00:20:02.644Z,97620.382
2019-02-15T00:20:10.527Z,97617.046
2019-02-15T00:20:18.404Z,97614.554
2019-02-15T00:20:26.284Z,97615.046
2019-02-15T00:20:34.187Z,97616.734
2019-02-15T00:20:42.063Z,97617.968
2019-02-15T00:20:49.951Z,97615.718
2019-02-15T00:20:57.839Z,97617.398
2019-02-15T00:21:06.711Z,97618.531
2019-02-15T00:21:14.611Z,97617.562
2019-02-15T00:21:22.487Z,97617.046
2019-02-15T00:21:30.361Z,97617.046
2019-02-15T00:21:38.257Z,97613.062
2019-02-15T00:21:46.116Z,97615.953
2019-02-15T00:21:54.006Z,97616.046
2019-02-15T00:22:01.893Z,97619.523
2019-02-15T00:22:09.778Z,97618.984
2019-02-15T00:22:17.702Z,97615.117
2019-02-15T00:22:25.591Z,97613.171
2019-02-15T00:22:33.497Z,97617.375
2019-02-15T00:22:41.406Z,97617.203
2019-02-15T00:22:49.280Z,97617.046
2019-02-15T00:22:57.178Z,97614.828
2019-02-15T00:23:05.064Z,97618.062
2019-02-15T00:23:12.935Z,97617.437
2019-02-15T00:23:20.887Z,97617.703
2019-02-15T00:23:28.775Z,97616.984
2019-02-15T00:23:36.637Z,97616.546
2019-02-15T00:23:44.553Z,97618.265
2019-02-15T00:23:52.415Z,97617.468
2019-02-15T00:24:00.415Z,97615.046
2019-02-15T00:24:08.331Z,97613.46
2019-02-15T00:24:17.186Z,97616.156
2019-02-15T00:24:25.061Z,97616.312
2019-02-15T00:24:32.931Z,97614.328
2019-02-15T00:24:40.848Z,97614.656
2019-02-15T00:24:48.729Z,97614.218
2019-02-15T00:24:56.627Z,97615.656
2019-02-15T00:25:04.487Z,97613.726
2019-02-15T00:25:12.356Z,97616.445
2019-02-15T00:25:20.305Z,97616.937
2019-02-15T00:25:28.177Z,97614.328
2019-02-15T00:25:36.113Z,97617.046
2019-02-15T00:25:44.996Z,97615.382
2019-02-15T00:25:52.893Z,97614.656
2019-02-15T00:26:00.793Z,97615.117
2019-02-15T00:26:08.703Z,97613.39
2019-02-15T00:26:17.594Z,97614.656
2019-02-15T00:26:25.507Z,97615.046
2019-02-15T00:26:33.391Z,97613
2019-02-15T00:26:41.269Z,97613.671
2019-02-15T00:26:49.149Z,97611.679
2019-02-15T00:26:57.015Z,97615.546
2019-02-15T00:27:04.958Z,97612.671
2019-02-15T00:27:12.833Z,97614.828
2019-02-15T00:27:20.699Z,97614.882
2019-02-15T00:27:28.573Z,97615.953
2019-02-15T00:27:36.462Z,97612.968
2019-02-15T00:27:44.327Z,97611.843
2019-02-15T00:27:52.209Z,97614.328
2019-02-15T00:28:00.090Z,97614.164
2019-02-15T00:28:07.993Z,97614.125
2019-02-15T00:28:15.877Z,97613.726
2019-02-15T00:28:23.741Z,97615.718
2019-02-15T00:28:31.635Z,97614.492
2019-02-15T00:28:40.525Z,97613.671
2019-02-15T00:28:48.439Z,97614.828
2019-02-15T00:28:56.319Z,97613.171
2019-02-15T00:29:04.191Z,97613
2019-02-15T00:29:12.089Z,97613
2019-02-15T00:29:19.959Z,97610.921
2019-02-15T00:29:28.818Z,97615.656
2019-02-15T00:29:36.713Z,97616.812
2019-02-15T00:29:44.669Z,97618.437
2019-02-15T00:29:53.528Z,97612.171
2019-02-15T00:30:01.427Z,97616.445
2019-02-15T00:30:10.291Z,97615.617
2019-02-15T00:30:19.171Z,97614.562
2019-02-15T00:30:27.056Z,97615.781
2019-02-15T00:30:34.919Z,97617.867
2019-02-15T00:30:42.829Z,97615.718
2019-02-15T00:30:50.685Z,97615.656
2019-02-15T00:30:58.572Z,97616.054
2019-02-15T00:31:06.481Z,97613.828
2019-02-15T00:31:14.378Z,97612.835
2019-02-15T00:31:22.279Z,97614.234
2019-02-15T00:31:31.165Z,97615.484
2019-02-15T00:31:39.065Z,97612.671
2019-02-15T00:31:46.939Z,97615.984
2019-02-15T00:31:54.818Z,97613.57
2019-02-15T00:32:02.734Z,97615.39
2019-02-15T00:32:11.555Z,97609.5
2019-02-15T00:32:19.438Z,97612.507
2019-02-15T00:32:27.329Z,97614.328
2019-02-15T00:32:35.195Z,97613.5
2019-02-15T00:32:43.053Z,97611.484
2019-02-15T00:32:50.963Z,97611.515
2019-02-15T00:32:58.863Z,97613.07
2019-02-15T00:33:06.785Z,97610.656
2019-02-15T00:33:14.687Z,97615.062
2019-02-15T00:33:22.655Z,97612.64
2019-02-15T00:33:30.557Z,97611.578
2019-02-15T00:33:38.415Z,97614.796
2019-02-15T00:33:46.293Z,97610.75
2019-02-15T00:33:54.183Z,97615.984
2019-02-15T00:34:03.099Z,97614.96
2019-02-15T00:34:10.973Z,97614.164
2019-02-15T00:34:18.868Z,97609.234
2019-02-15T00:34:27.734Z,97614.296
2019-02-15T00:34:35.632Z,97611.843
2019-02-15T00:34:43.501Z,97612.171
2019-02-15T00:34:51.371Z,97613.671
2019-02-15T00:34:59.271Z,97611.156
2019-02-15T00:35:07.164Z,97610.984
2019-02-15T00:35:15.070Z,97610.984
2019-02-15T00:35:22.969Z,97609.828
2019-02-15T00:35:31.857Z,97610.32
2019-02-15T00:35:39.745Z,97610.156
2019-02-15T00:35:48.617Z,97608.828
2019-02-15T00:35:56.498Z,97610.156
2019-02-15T00:36:04.395Z,97609.992
2019-02-15T00:36:12.271Z,97611.914
2019-02-15T00:36:20.142Z,97613.07
2019-02-15T00:36:28.023Z,97610.656
2019-02-15T00:36:35.926Z,97608.328
2019-02-15T00:36:43.803Z,97608.765
2019-02-15T00:36:52.679Z,97610.656
2019-02-15T00:37:01.548Z,97611.156
2019-02-15T00:37:09.417Z,97610.656
2019-02-15T00:37:17.339Z,97608.929
2019-02-15T00:37:25.202Z,97612.875
2019-02-15T00:37:33.065Z,97609.328
2019-02-15T00:37:40.945Z,97609.5
2019-02-15T00:37:48.891Z,97612.406
2019-02-15T00:37:56.771Z,97611.414
2019-02-15T00:38:04.639Z,97609.726
2019-02-15T00:38:12.541Z,97611.156
2019-02-15T00:38:20.425Z,97611.648
2019-02-15T00:38:28.320Z,97612.968
2019-02-15T00:38:36.180Z,97611.976
2019-02-15T00:38:44.070Z,97612.64
2019-02-15T00:38:51.963Z,97611.078
2019-02-15T00:38:59.846Z,97612.21
2019-02-15T00:39:07.737Z,97614.96
2019-02-15T00:39:15.610Z,97612.64
2019-02-15T00:39:23.496Z,97610.953
2019-02-15T00:39:31.435Z,97610.89
2019-02-15T00:39:40.879Z,97608.14
2019-02-15T00:39:48.745Z,97613.64
2019-02-15T00:39:56.658Z,97610.062
2019-02-15T00:40:05.534Z,97611.484
2019-02-15T00:40:13.435Z,97609.328
2019-02-15T00:40:21.318Z,97612.64
2019-02-15T00:40:29.200Z,97612.546
2019-02-15T00:40:37.073Z,97611.125
2019-02-15T00:40:44.947Z,97610.953
2019-02-15T00:40:52.841Z,97613.046
2019-02-15T00:41:00.731Z,97615.593
2019-02-15T00:41:08.616Z,97616.617
2019-02-15T00:41:16.524Z,97615.296
2019-02-15T00:41:24.397Z,97616.617
2019-02-15T00:41:32.289Z,97615.695
2019-02-15T00:41:40.160Z,97614.859
2019-02-15T00:41:48.055Z,97613.804
2019-02-15T00:41:55.967Z,97614.796
2019-02-15T00:42:03.897Z,97613.867
2019-02-15T00:42:11.778Z,97613.437
2019-02-15T00:42:19.663Z,97611.125
2019-02-15T00:42:27.560Z,97616.515
2019-02-15T00:42:35.426Z,97613.539
2019-02-15T00:42:43.296Z,97615.593
2019-02-15T00:42:51.174Z,97618.773
2019-02-15T00:42:59.048Z,97617.609
2019-02-15T00:43:06.923Z,97612.281
2019-02-15T00:43:22.042Z,97615.695
2019-02-15T00:43:26.635Z,97614.101
2019-02-15T00:43:34.527Z,97612.945
2019-02-15T00:43:42.414Z,97615.593
2019-02-15T00:43:50.314Z,97617.453
2019-02-15T00:43:58.183Z,97614.601
2019-02-15T00:44:06.084Z,97614.765
2019-02-15T00:44:13.973Z,97613.437
2019-02-15T00:44:21.871Z,97615.859
2019-02-15T00:44:29.748Z,97612.875
2019-02-15T00:44:38.612Z,97614.601
2019-02-15T00:44:46.488Z,97615.5
2019-02-15T00:44:54.374Z,97617.25
2019-02-15T00:45:02.263Z,97615.757
2019-02-15T00:45:10.165Z,97615.929
2019-02-15T00:45:18.033Z,97616.921
2019-02-15T00:45:25.935Z,97615.093
2019-02-15T00:45:33.809Z,97614
2019-02-15T00:45:41.681Z,97613.937
2019-02-15T00:45:49.557Z,97612.109
2019-02-15T00:45:57.441Z,97613.773
2019-02-15T00:46:05.337Z,97611.781
2019-02-15T00:46:14.207Z,97613.539
2019-02-15T00:46:23.117Z,97608.539
2019-02-15T00:46:30.990Z,97611.851
2019-02-15T00:46:38.869Z,97610.453
2019-02-15T00:46:46.790Z,97612.343
2019-02-15T00:46:54.662Z,97613.703
2019-02-15T00:47:02.534Z,97612.71
2019-02-15T00:47:10.428Z,97612.281
2019-02-15T00:47:19.263Z,97609.867
2019-02-15T00:47:27.179Z,97608.609
2019-02-15T00:47:35.055Z,97611.125
2019-02-15T00:47:42.991Z,97611.781
2019-02-15T00:47:50.919Z,97607.968
2019-02-15T00:47:58.800Z,97608.437
2019-02-15T00:48:06.678Z,97613.14
2019-02-15T00:48:14.566Z,97608.304
2019-02-15T00:48:22.469Z,97609.375
2019-02-15T00:48:30.343Z,97606.289
2019-02-15T00:48:38.203Z,97604.328
2019-02-15T00:48:46.083Z,97607.968
2019-02-15T00:48:53.969Z,97607.312
2019-02-15T00:49:02.845Z,97605.46
2019-02-15T00:49:10.734Z,97605.062
2019-02-15T00:49:18.611Z,97605.32
2019-02-15T00:49:26.489Z,97605.953
2019-02-15T00:49:35.356Z,97606.546
2019-02-15T00:49:43.251Z,97604.828
2019-02-15T00:49:51.128Z,97603.773
2019-02-15T00:50:00.051Z,97602.546
2019-02-15T00:50:08.972Z,97604.89
2019-02-15T00:50:16.854Z,97604.968
2019-02-15T00:50:24.744Z,97605.125
2019-02-15T00:50:32.631Z,97605.226
2019-02-15T00:50:40.500Z,97603.468
2019-02-15T00:50:48.387Z,97604.296
2019-02-15T00:50:56.268Z,97601.414
2019-02-15T00:51:04.157Z,97602.242
2019-02-15T00:51:14.010Z,97604.328
2019-02-15T00:51:21.916Z,97602.976
2019-02-15T00:51:29.799Z,97600.328
2019-02-15T00:51:37.707Z,97601.812
2019-02-15T00:51:45.571Z,97600.656
2019-02-15T00:51:53.431Z,97604.992
2019-02-15T00:52:01.337Z,97600.39
2019-02-15T00:52:09.216Z,97600.484
2019-02-15T00:52:17.077Z,97594.593
2019-02-15T00:52:24.963Z,97598
2019-02-15T00:52:32.854Z,97600.062
2019-02-15T00:52:40.786Z,97601.648
2019-02-15T00:52:48.651Z,97599
2019-02-15T00:52:57.548Z,97600.484
2019-02-15T00:53:05.432Z,97597.937
2019-02-15T00:53:14.295Z,97597.343
2019-02-15T00:53:22.177Z,97597.843
2019-02-15T00:53:30.103Z,97598.437
2019-02-15T00:53:38.977Z,97599.257
2019-02-15T00:53:46.891Z,97598.5
2019-02-15T00:53:55.774Z,97595.984
2019-02-15T00:54:03.691Z,97598.14
2019-02-15T00:54:11.610Z,97594.093
2019-02-15T00:54:20.500Z,97598.468
2019-02-15T00:54:28.419Z,97599
2019-02-15T00:54:36.276Z,97597.343
2019-02-15T00:54:44.166Z,97597.671
2019-02-15T00:54:52.118Z,97597.312
2019-02-15T00:55:00.010Z,97597.406
2019-02-15T00:55:07.904Z,97596.515
2019-02-15T00:55:15.783Z,97596.75
2019-02-15T00:55:23.662Z,97595.093
2019-02-15T00:55:32.540Z,97594.593
2019-02-15T00:55:40.428Z,97595.687
2019-02-15T00:55:48.309Z,97592.507
2019-02-15T00:55:56.186Z,97594.921
2019-02-15T00:56:04.058Z,97595.484
2019-02-15T00:56:11.940Z,97591.843
2019-02-15T00:56:19.834Z,97593
2019-02-15T00:56:27.710Z,97593.695
2019-02-15T00:56:35.557Z,97592.343
2019-02-15T00:56:43.425Z,97589.687
2019-02-15T00:56:51.306Z,97594.531
2019-02-15T00:57:00.201Z,97590.023
2019-02-15T00:57:08.085Z,97593.593
2019-02-15T00:57:15.963Z,97591.445
2019-02-15T00:57:23.863Z,97590.843
2019-02-15T00:57:31.757Z,97590.945
2019-02-15T00:57:40.655Z,97591.218
2019-02-15T00:57:48.530Z,97592.21
2019-02-15T00:57:56.412Z,97591.609
2019-02-15T00:58:04.306Z,97593.171
2019-02-15T00:58:12.174Z,97592.375
2019-02-15T00:58:20.081Z,97593.671
2019-02-15T00:58:28.015Z,97591.046
2019-02-15T00:58:35.868Z,97587.531
2019-02-15T00:58:43.739Z,97586.078
2019-02-15T00:58:51.632Z,97591.515
2019-02-15T00:58:59.533Z,97588.859
2019-02-15T00:59:07.427Z,97589.132
2019-02-15T00:59:15.323Z,97592.507
2019-02-15T00:59:23.189Z,97588.859
2019-02-15T00:59:31.072Z,97592.343
2019-02-15T00:59:38.927Z,97588.304
2019-02-15T00:59:46.806Z,97588.234
2019-02-15T00:59:54.663Z,97587.703
2019-02-15T01:00:03.530Z,97593.5
2019-02-15T01:00:11.396Z,97593
2019-02-15T01:00:19.290Z,97589.562
2019-02-15T01:00:27.190Z,97591.343
2019-02-15T01:00:35.059Z,97589.062
2019-02-15T01:00:42.924Z,97590.843
2019-02-15T01:00:51.830Z,97589.062
2019-02-15T01:00:59.708Z,97589.234
2019-02-15T01:01:07.598Z,97588.234
2019-02-15T01:01:15.497Z,97589.859
2019-02-15T01:01:24.416Z,97588.531
2019-02-15T01:01:32.279Z,97589.726
2019-02-15T01:01:40.160Z,97588.234
2019-02-15T01:01:49.046Z,97588.531
2019-02-15T01:01:56.944Z,97589.468
2019-02-15T01:02:04.851Z,97590.89
2019-02-15T01:02:12.728Z,97590.718
2019-02-15T01:02:20.614Z,97591.179
2019-02-15T01:02:28.507Z,97590.789
2019-02-15T01:02:36.376Z,97592.171
2019-02-15T01:02:44.260Z,97590.187
2019-02-15T01:02:52.154Z,97592.273
2019-02-15T01:03:00.044Z,97588.562
2019-02-15T01:03:07.930Z,97594
2019-02-15T01:03:15.811Z,97590.062
2019-02-15T01:03:23.709Z,97592.343
2019-02-15T01:03:31.592Z,97588.796
2019-02-15T01:03:39.478Z,97592.343
2019-02-15T01:03:47.375Z,97591.953
2019-02-15T01:03:55.250Z,97588.796
2019-02-15T01:04:03.122Z,97591.125
2019-02-15T01:04:11.046Z,97586.546
2019-02-15T01:04:18.902Z,97590.531
2019-02-15T01:04:26.766Z,97594.093
2019-02-15T01:04:34.659Z,97591.453
2019-02-15T01:04:42.531Z,97592.343
2019-02-15T01:04:50.419Z,97591.218
2019-02-15T01:04:58.305Z,97593.046
2019-02-15T01:05:07.216Z,97590.89
2019-02-15T01:05:15.073Z,97588.703
2019-02-15T01:05:22.969Z,97590.125
2019-02-15T01:05:30.858Z,97589.632
2019-02-15T01:05:38.772Z,97590.953
2019-02-15T01:05:46.650Z,97591.617
2019-02-15T01:05:54.559Z,97591.218
2019-02-15T01:06:02.434Z,97591.687
2019-02-15T01:06:10.328Z,97588.796
2019-02-15T01:06:18.230Z,97589.296
2019-02-15T01:06:26.177Z,97591.617
2019-02-15T01:06:34.062Z,97589.265
2019-02-15T01:06:42.946Z,97590.859
2019-02-15T01:06:51.802Z,97592.445
2019-02-15T01:06:59.675Z,97590.296
2019-02-15T01:07:07.576Z,97590.062
2019-02-15T01:07:15.438Z,97590.195
2019-02-15T01:07:24.300Z,97593.937
2019-02-15T01:07:32.168Z,97594.492
2019-02-15T01:07:40.054Z,97595.156
2019-02-15T01:07:47.939Z,97592.945
2019-02-15T01:07:55.836Z,97596.75
2019-02-15T01:08:03.709Z,97597.515
2019-02-15T01:08:11.567Z,97595.757
2019-02-15T01:08:19.455Z,97591.757
2019-02-15T01:08:27.350Z,97595.429
2019-02-15T01:08:35.245Z,97595.156
2019-02-15T01:08:43.127Z,97593.843
2019-02-15T01:08:50.984Z,97595.859
2019-02-15T01:08:58.858Z,97592.343
2019-02-15T01:09:06.770Z,97596.75
2019-02-15T01:09:14.688Z,97592.679
2019-02-15T01:09:22.565Z,97594.367
2019-02-15T01:09:30.490Z,97593.25
2019-02-15T01:09:38.410Z,97595.89
2019-02-15T01:09:46.281Z,97596.656
2019-02-15T01:09:55.136Z,97596.187
2019-02-15T01:10:03.055Z,97596.593
2019-02-15T01:10:11.942Z,97593.671
2019-02-15T01:10:19.814Z,97593.179
2019-02-15T01:10:27.692Z,97596.093
2019-02-15T01:10:36.645Z,97594.57
2019-02-15T01:10:44.536Z,97598.179
2019-02-15T01:10:52.424Z,97594.906
2019-02-15T01:11:00.361Z,97596.89
2019-02-15T01:11:08.226Z,97600.039
2019-02-15T01:11:17.120Z,97596.726
2019-02-15T01:11:25.042Z,97599.578
2019-02-15T01:11:32.918Z,97596.921
2019-02-15T01:11:40.818Z,97599.5
2019-02-15T01:11:48.702Z,97598.046
2019-02-15T01:11:56.592Z,97596.023
2019-02-15T01:12:04.468Z,97598.812
2019-02-15T01:12:12.337Z,97595.562
2019-02-15T01:12:20.205Z,97596.562
2019-02-15T01:12:28.086Z,97600.398
2019-02-15T01:12:35.959Z,97597.484
2019-02-15T01:12:44.814Z,97599.906
2019-02-15T01:12:52.679Z,97597.218
2019-02-15T01:13:00.560Z,97594.734
2019-02-15T01:13:08.452Z,97598.875
2019-02-15T01:13:16.339Z,97596.625
2019-02-15T01:13:31.041Z,97598.64
2019-02-15T01:13:38.052Z,97599.875
2019-02-15T01:13:46.946Z,97599.539
2019-02-15T01:13:54.798Z,97595.992
2019-02-15T01:14:02.684Z,97596.46
2019-02-15T01:14:10.589Z,97593.781
2019-02-15T01:14:18.454Z,97593.148
2019-02-15T01:14:26.320Z,97599.539
2019-02-15T01:14:34.236Z,97598.281
2019-02-15T01:14:42.120Z,97594.078
2019-02-15T01:14:50.026Z,97596.296
2019-02-15T01:14:57.900Z,97596.226
2019-02-15T01:15:05.775Z,97596.46
2019-02-15T01:15:14.629Z,97596.89
2019-02-15T01:15:22.494Z,97600.734
2019-02-15T01:15:30.391Z,97594.906
2019-02-15T01:15:38.276Z,97597.554
2019-02-15T01:15:46.154Z,97599.21
2019-02-15T01:15:54.022Z,97594.906
2019-02-15T01:16:01.926Z,97598.546
2019-02-15T01:16:09.808Z,97595.562
2019-02-15T01:16:17.682Z,97597.984
2019-02-15T01:16:25.596Z,97595.89
2019-02-15T01:16:33.466Z,97596.39
2019-02-15T01:16:41.380Z,97597.062
2019-02-15T01:16:50.262Z,97594.171
2019-02-15T01:16:58.122Z,97595.304
2019-02-15T01:17:06.015Z,97594.437
2019-02-15T01:17:13.869Z,97593.218
2019-02-15T01:17:21.734Z,97597.453
2019-02-15T01:17:30.623Z,97597.296
2019-02-15T01:17:38.502Z,97594.234
2019-02-15T01:17:46.422Z,97593.976
2019-02-15T01:17:54.323Z,97595.039
2019-02-15T01:18:03.197Z,97594.703
2019-02-15T01:18:11.051Z,97594.546
2019-02-15T01:18:18.909Z,97594.734
2019-02-15T01:18:26.781Z,97592.984
2019-02-15T01:18:34.654Z,97593.953
2019-02-15T01:18:42.529Z,97594.375
2019-02-15T01:18:50.431Z,97594.046
2019-02-15T01:18:58.310Z,97592.218
2019-02-15T01:19:06.208Z,97591.226
2019-02-15T01:19:15.076Z,97590.468
2019-02-15T01:19:22.936Z,97589.671
2019-02-15T01:19:30.815Z,97591.226
2019-02-15T01:19:38.692Z,97592.085
2019-02-15T01:19:46.568Z,97591.625
2019-02-15T01:19:54.475Z,97591
2019-02-15T01:20:02.356Z,97591.296
2019-02-15T01:20:10.246Z,97592.32
2019-02-15T01:20:18.134Z,97592.554
2019-02-15T01:20:26.024Z,97591.718
2019-02-15T01:20:33.914Z,97593.375
2019-02-15T01:20:41.819Z,97592.484
2019-02-15T01:20:49.739Z,97592.39
2019-02-15T01:20:58.611Z,97593.375
2019-02-15T01:21:06.502Z,97590.898
2019-02-15T01:21:14.580Z,97592.484
2019-02-15T01:21:22.390Z,97588.078
2019-02-15T01:21:30.315Z,97589.078
2019-02-15T01:21:38.208Z,97591.984
2019-02-15T01:21:46.102Z,97590.406
2019-02-15T01:21:53.968Z,97587.226
2019-02-15T01:22:01.921Z,97590.328
2019-02-15T01:22:10.795Z,97591.39
2019-02-15T01:22:18.659Z,97591.562
2019-02-15T01:22:26.548Z,97586.421
2019-02-15T01:22:34.434Z,97589.101
2019-02-15T01:22:42.314Z,97589.5
2019-02-15T01:22:50.190Z,97589.968
2019-02-15T01:22:58.048Z,97585.593
2019-02-15T01:23:05.972Z,97588.843
2019-02-15T01:23:13.875Z,97589.007
2019-02-15T01:23:21.749Z,97587.25
2019-02-15T01:23:29.650Z,97587.25
2019-02-15T01:23:37.523Z,97585.921
2019-02-15T01:23:45.417Z,97585.765
2019-02-15T01:23:53.296Z,97587.226
2019-02-15T01:24:02.183Z,97586.828
2019-02-15T01:24:10.071Z,97587.32
2019-02-15T01:24:17.971Z,97583.25
2019-02-15T01:24:25.846Z,97586.757
2019-02-15T01:24:33.713Z,97589.078
2019-02-15T01:24:41.596Z,97586.257
2019-02-15T01:24:49.484Z,97584.765
2019-02-15T01:24:57.371Z,97585.171
2019-02-15T01:25:05.242Z,97587.32
2019-02-15T01:25:13.143Z,97586.421
2019-02-15T01:25:20.999Z,97587.484
2019-02-15T01:25:28.900Z,97588.906
2019-02-15T01:25:36.795Z,97587.578
2019-02-15T01:25:44.680Z,97585.898
2019-02-15T01:25:52.563Z,97584.5
2019-02-15T01:26:00.457Z,97583.171
2019-02-15T01:26:08.309Z,97582.585
2019-02-15T01:26:16.166Z,97586.328
2019-02-15T01:26:24.114Z,97582.515
2019-02-15T01:26:31.995Z,97586.39
2019-02-15T01:26:39.879Z,97588.148
2019-02-15T01:26:47.799Z,97584.57
2019-02-15T01:26:55.655Z,97587.718
2019-02-15T01:27:03.566Z,97587.226
2019-02-15T01:27:12.465Z,97586.89
2019-02-15T01:27:20.344Z,97584.406
2019-02-15T01:27:28.238Z,97589.64
2019-02-15T01:27:36.104Z,97590.039
2019-02-15T01:27:44.038Z,97588.484
2019-02-15T01:27:51.916Z,97583.781
2019-02-15T01:27:59.790Z,97584.734
2019-02-15T01:28:07.668Z,97589.14
2019-02-15T01:28:15.592Z,97587.718
2019-02-15T01:28:23.480Z,97588.148
2019-02-15T01:28:31.365Z,97587.89
2019-02-15T01:28:39.274Z,97588.312
2019-02-15T01:28:47.162Z,97587.812
2019-02-15T01:28:56.040Z,97588.546
2019-02-15T01:29:04.908Z,97587.265
2019-02-15T01:29:12.786Z,97586.89
2019-02-15T01:29:20.671Z,97587.421
2019-02-15T01:29:28.531Z,97584.406
2019-02-15T01:29:36.456Z,97584.109
2019-02-15T01:29:44.324Z,97586.726
2019-02-15T01:29:54.202Z,97583.125
2019-02-15T01:30:02.082Z,97583.578
2019-02-15T01:30:10.010Z,97586.062
2019-02-15T01:30:17.902Z,97588.484
2019-02-15T01:30:25.768Z,97583.687
2019-02-15T01:30:33.738Z,97585.507
2019-02-15T01:30:41.601Z,97586.89
2019-02-15T01:30:49.503Z,97582.687
2019-02-15T01:30:57.385Z,97583.781
2019-02-15T01:31:05.259Z,97584.078
2019-02-15T01:31:13.132Z,97584.437
2019-02-15T01:31:20.996Z,97581.96
2019-02-15T01:31:28.872Z,97585.406
2019-02-15T01:31:36.756Z,97583.906
2019-02-15T01:31:44.649Z,97582.195
2019-02-15T01:31:52.543Z,97581.531
2019-02-15T01:32:00.414Z,97580.304
2019-02-15T01:32:08.300Z,97584.57